createdAt,value
2022-08-04T00:01:33.250Z,99.90
2022-08-04T00:04:14.200Z,99.90
2022-08-04T00:07:01.093Z,99.90
2022-08-04T00:09:39.832Z,99.90
2022-08-04T00:12:12.585Z,99.90
2022-08-04T00:14:49.553Z,99.90
2022-08-04T00:17:26.869Z,99.90
2022-08-04T00:20:02.120Z,99.90
2022-08-04T00:22:32.660Z,99.90
2022-08-04T00:25:06.303Z,99.90
2022-08-04T00:27:36.404Z,99.90
2022-08-04T00:30:07.721Z,99.90
2022-08-04T00:32:36.818Z,99.90
2022-08-04T00:35:09.992Z,99.90
2022-08-04T00:37:40.272Z,99.90
2022-08-04T00:40:23.857Z,99.90
2022-08-04T00:43:09.299Z,99.90
2022-08-04T00:46:18.066Z,99.90
2022-08-04T00:49:30.895Z,99.90
2022-08-04T00:52:32.037Z,99.90
2022-08-04T00:55:18.743Z,99.90
2022-08-04T00:58:14.179Z,99.90
2022-08-04T01:00:53.500Z,99.90
2022-08-04T01:03:38.140Z,99.90
2022-08-04T01:06:17.362Z,99.90
2022-08-04T01:09:21.124Z,99.90
2022-08-04T01:12:19.397Z,99.90
2022-08-04T01:15:06.376Z,99.90
2022-08-04T01:18:00.326Z,99.90
2022-08-04T01:20:35.892Z,99.90
2022-08-04T01:24:12.023Z,99.90
2022-08-04T01:26:58.385Z,99.90
2022-08-04T01:29:46.703Z,99.90
2022-08-04T01:32:26.542Z,99.90
2022-08-04T01:35:03.874Z,99.90
2022-08-04T01:37:50.580Z,99.90
2022-08-04T01:40:20.115Z,99.90
2022-08-04T01:42:54.319Z,99.90
2022-08-04T01:45:26.460Z,99.90
2022-08-04T01:47:57.289Z,99.90
2022-08-04T01:50:28.021Z,99.90
2022-08-04T01:52:57.180Z,99.90
2022-08-04T01:55:55.262Z,99.90
2022-08-04T01:58:21.878Z,99.90
2022-08-04T02:01:02.330Z,99.90
2022-08-04T02:04:21.746Z,99.90
2022-08-04T02:06:46.636Z,99.90
2022-08-04T02:09:24.907Z,99.90
2022-08-04T02:12:05.784Z,99.90
2022-08-04T02:14:53.412Z,99.90
2022-08-04T02:17:32.645Z,99.90
2022-08-04T02:20:09.485Z,99.90
2022-08-04T02:22:45.379Z,99.90
2022-08-04T02:25:20.808Z,99.90
2022-08-04T02:28:07.340Z,99.90
2022-08-04T02:30:45.226Z,99.90
2022-08-04T02:33:23.749Z,99.90
2022-08-04T02:36:02.341Z,99.90
2022-08-04T02:38:49.091Z,99.90
2022-08-04T02:41:19.010Z,99.90
2022-08-04T02:43:52.700Z,99.90
2022-08-04T02:46:23.348Z,99.90
2022-08-04T02:48:55.069Z,99.90
2022-08-04T02:51:30.688Z,99.90
2022-08-04T02:54:01.479Z,99.90
2022-08-04T02:56:32.936Z,99.90
2022-08-04T02:59:04.096Z,99.90
2022-08-04T03:01:33.654Z,99.90
2022-08-04T03:04:24.923Z,99.90
2022-08-04T03:07:39.661Z,99.90
2022-08-04T03:11:04.651Z,99.90
2022-08-04T03:14:10.235Z,99.90
2022-08-04T03:17:23.877Z,99.90
2022-08-04T03:20:40.900Z,99.90
2022-08-04T03:23:52.352Z,99.90
2022-08-04T03:27:01.282Z,99.90
2022-08-04T03:30:06.874Z,99.90
2022-08-04T03:33:25.639Z,99.90
2022-08-04T03:36:36.495Z,99.90
2022-08-04T03:40:00.896Z,99.90
2022-08-04T03:43:57.181Z,99.90
2022-08-04T03:46:49.508Z,99.90
2022-08-04T03:50:13.918Z,99.90
2022-08-04T03:53:28.966Z,99.90
2022-08-04T03:56:40.821Z,99.90
2022-08-04T03:59:36.505Z,99.90
2022-08-04T04:02:42.276Z,99.90
2022-08-04T04:05:58.901Z,99.90
2022-08-04T04:09:03.702Z,99.90
2022-08-04T04:12:01.172Z,99.90
2022-08-04T04:15:01.010Z,99.90
2022-08-04T04:17:52.544Z,99.90
2022-08-04T04:20:53.937Z,99.90
2022-08-04T04:23:55.983Z,99.90
2022-08-04T04:26:52.977Z,99.90
2022-08-04T04:29:53.535Z,99.90
2022-08-04T04:32:29.022Z,99.90
2022-08-04T04:35:32.402Z,99.90
2022-08-04T04:38:30.940Z,99.90
2022-08-04T04:41:31.457Z,99.90
2022-08-04T04:44:48.770Z,99.90
2022-08-04T04:48:08.953Z,99.90
2022-08-04T04:50:36.417Z,99.90
2022-08-04T04:53:18.403Z,99.90
2022-08-04T04:55:54.947Z,99.90
2022-08-04T04:58:26.312Z,99.90
2022-08-04T05:01:26.867Z,99.90
2022-08-04T05:04:26.425Z,99.90
2022-08-04T05:07:22.685Z,99.90
2022-08-04T05:10:09.872Z,99.90
2022-08-04T05:14:34.683Z,99.90
2022-08-04T05:15:56.229Z,99.90
2022-08-04T05:18:31.990Z,99.90
2022-08-04T05:21:27.192Z,99.90
2022-08-04T05:24:03.768Z,99.90
2022-08-04T05:26:40.034Z,99.90
2022-08-04T05:29:12.776Z,99.90
2022-08-04T05:31:53.064Z,99.90
2022-08-04T05:34:27.355Z,99.90
2022-08-04T05:37:01.342Z,99.90
2022-08-04T05:39:35.552Z,99.90
2022-08-04T05:42:07.293Z,94.00
2022-08-04T05:44:37.967Z,93.50
2022-08-04T05:47:11.986Z,92.30
2022-08-04T05:49:42.651Z,93.10
2022-08-04T05:52:13.524Z,99.30
2022-08-04T05:54:43.471Z,99.90
2022-08-04T05:57:13.225Z,99.90
2022-08-04T05:59:46.816Z,99.90
2022-08-04T06:02:21.008Z,99.90
2022-08-04T06:04:53.919Z,99.90
2022-08-04T06:07:22.783Z,99.90
2022-08-04T06:09:50.965Z,95.60
2022-08-04T06:12:23.049Z,83.80
2022-08-04T06:14:59.393Z,69.50
2022-08-04T06:19:56.164Z,61.60
2022-08-04T06:20:34.521Z,53.00
2022-08-04T06:23:08.567Z,49.80
2022-08-04T06:25:44.706Z,46.50
2022-08-04T06:28:14.797Z,45.30
2022-08-04T06:30:47.653Z,41.20
2022-08-04T06:33:27.736Z,41.30
2022-08-04T06:35:58.988Z,40.90
2022-08-04T06:38:30.372Z,38.30
2022-08-04T06:41:03.624Z,39.20
2022-08-04T06:43:33.648Z,38.40
2022-08-04T06:46:12.425Z,37.60
2022-08-04T06:48:44.527Z,34.00
2022-08-04T06:51:28.204Z,32.70
2022-08-04T06:54:01.567Z,32.40
2022-08-04T06:56:34.138Z,30.20
2022-08-04T06:59:03.686Z,29.30
2022-08-04T07:01:33.533Z,28.90
2022-08-04T07:04:03.545Z,29.20
2022-08-04T07:06:32.054Z,27.50
2022-08-04T07:09:00.759Z,26.80
2022-08-04T07:11:29.667Z,26.90
2022-08-04T07:14:13.222Z,26.10
2022-08-04T07:16:43.376Z,25.00
2022-08-04T07:19:15.904Z,24.00
2022-08-04T07:22:17.770Z,23.80
2022-08-04T07:24:41.075Z,22.20
2022-08-04T07:27:10.418Z,21.50
2022-08-04T07:29:39.715Z,20.80
2022-08-04T07:32:10.969Z,20.70
2022-08-04T07:34:42.667Z,21.30
2022-08-04T07:37:18.470Z,20.40
2022-08-04T07:39:47.804Z,19.80
2022-08-04T07:42:21.371Z,19.70
2022-08-04T07:44:49.983Z,18.80
2022-08-04T07:47:23.525Z,18.70
2022-08-04T07:49:57.870Z,18.10
2022-08-04T07:52:27.393Z,19.00
2022-08-04T07:54:56.366Z,18.70
2022-08-04T07:57:41.712Z,18.20
2022-08-04T08:00:15.180Z,19.00
2022-08-04T08:02:46.676Z,18.10
2022-08-04T08:05:20.453Z,18.20
2022-08-04T08:07:54.228Z,17.90
2022-08-04T08:10:23.668Z,17.40
2022-08-04T08:12:52.895Z,17.70
2022-08-04T08:15:22.529Z,17.60
2022-08-04T08:17:58.902Z,16.90
2022-08-04T08:20:33.311Z,16.20
2022-08-04T08:23:03.985Z,16.60
2022-08-04T08:25:34.635Z,16.80
2022-08-04T08:28:12.748Z,16.00
2022-08-04T08:30:41.893Z,15.90
2022-08-04T08:33:14.464Z,14.80
2022-08-04T08:35:57.686Z,14.40
2022-08-04T08:38:46.242Z,14.80
2022-08-04T08:42:02.801Z,15.10
2022-08-04T08:44:58.101Z,14.60
2022-08-04T08:47:58.436Z,15.00
2022-08-04T08:51:07.108Z,15.90
2022-08-04T08:54:04.364Z,15.20
2022-08-04T08:56:45.962Z,15.20
2022-08-04T08:59:50.535Z,14.90
2022-08-04T09:03:13.100Z,15.10
2022-08-04T09:06:21.567Z,15.20
2022-08-04T09:09:22.995Z,15.30
2022-08-04T09:12:05.807Z,14.10
2022-08-04T09:14:43.656Z,14.20
2022-08-04T09:17:24.047Z,14.80
2022-08-04T09:20:00.036Z,14.40
2022-08-04T09:22:39.950Z,14.80
2022-08-04T09:25:14.944Z,14.20
2022-08-04T09:27:50.260Z,13.50
2022-08-04T09:30:28.131Z,13.30
2022-08-04T09:33:08.757Z,12.40
2022-08-04T09:35:49.645Z,12.50
2022-08-04T09:38:30.861Z,12.00
2022-08-04T09:41:30.068Z,12.50
2022-08-04T09:44:52.419Z,12.20
2022-08-04T09:47:20.098Z,12.00
2022-08-04T09:49:59.074Z,12.00
2022-08-04T09:52:46.733Z,11.90
2022-08-04T09:55:54.424Z,11.40
2022-08-04T09:58:51.380Z,11.30
2022-08-04T10:01:23.820Z,11.20
2022-08-04T10:04:01.713Z,10.70
2022-08-04T10:06:46.948Z,10.60
2022-08-04T10:09:29.926Z,11.00
2022-08-04T10:12:27.510Z,10.60
2022-08-04T10:15:11.210Z,10.30
2022-08-04T10:18:10.806Z,10.80
2022-08-04T10:21:08.933Z,9.90
2022-08-04T10:24:01.919Z,10.00
2022-08-04T10:26:40.894Z,10.30
2022-08-04T10:29:17.410Z,9.70
2022-08-04T10:31:58.344Z,8.60
2022-08-04T10:34:37.592Z,8.30
2022-08-04T10:37:21.132Z,7.30
2022-08-04T10:40:21.818Z,7.10
2022-08-04T10:43:06.263Z,7.70
2022-08-04T10:45:57.981Z,7.80
2022-08-04T10:48:45.599Z,7.60
2022-08-04T10:51:26.793Z,7.50
2022-08-04T10:54:03.367Z,8.20
2022-08-04T10:56:41.859Z,8.70
2022-08-04T10:59:17.182Z,9.00
2022-08-04T11:02:02.299Z,7.80
2022-08-04T11:04:45.600Z,7.00
2022-08-04T11:07:16.563Z,7.00
2022-08-04T11:09:47.586Z,6.90
2022-08-04T11:12:20.692Z,6.70
2022-08-04T11:14:57.673Z,6.80
2022-08-04T11:17:33.577Z,7.30
2022-08-04T11:23:09.789Z,8.90
2022-08-04T11:25:54.357Z,8.40
2022-08-04T11:28:38.593Z,7.50
2022-08-04T11:31:12.365Z,7.10
2022-08-04T11:33:57.751Z,7.10
2022-08-04T11:36:40.712Z,7.50
2022-08-04T11:39:16.757Z,7.70
2022-08-04T11:41:54.633Z,7.40
2022-08-04T11:44:33.888Z,8.40
2022-08-04T11:47:09.160Z,9.10
2022-08-04T11:49:56.694Z,9.80
2022-08-04T11:52:28.132Z,10.00
2022-08-04T11:54:58.653Z,10.60
2022-08-04T11:57:35.761Z,10.60
2022-08-04T12:00:11.100Z,10.80
2022-08-04T12:03:12.180Z,10.60
2022-08-04T12:05:55.879Z,9.90
2022-08-04T12:08:50.434Z,9.60
2022-08-04T12:11:36.113Z,9.90
2022-08-04T12:14:16.163Z,10.00
2022-08-04T12:16:56.195Z,10.40
2022-08-04T12:19:57.058Z,9.90
2022-08-04T12:22:31.593Z,9.40
2022-08-04T12:25:06.088Z,8.60
2022-08-04T12:27:41.282Z,7.50
2022-08-04T12:30:58.759Z,7.60
2022-08-04T12:33:17.922Z,8.40
2022-08-04T12:36:10.317Z,8.90
2022-08-04T12:38:51.249Z,8.90
2022-08-04T12:41:28.907Z,7.70
2022-08-04T12:44:07.490Z,7.30
2022-08-04T12:47:28.179Z,6.80
2022-08-04T12:49:56.218Z,8.00
2022-08-04T12:53:00.485Z,8.60
2022-08-04T12:55:25.400Z,9.30
2022-08-04T12:57:55.714Z,10.20
2022-08-04T13:00:35.315Z,10.40
2022-08-04T13:03:15.124Z,10.70
2022-08-04T13:05:46.347Z,11.00
2022-08-04T13:08:17.136Z,10.90
2022-08-04T13:10:48.744Z,10.90
2022-08-04T13:13:20.686Z,10.10
2022-08-04T13:16:00.652Z,9.40
2022-08-04T13:18:33.924Z,9.80
2022-08-04T13:21:20.982Z,9.70
2022-08-04T13:24:21.091Z,9.10
2022-08-04T13:27:03.238Z,9.30
2022-08-04T13:29:57.716Z,9.40
2022-08-04T13:32:29.392Z,9.50
2022-08-04T13:35:03.844Z,9.20
2022-08-04T13:37:35.886Z,9.90
2022-08-04T13:40:06.441Z,10.10
2022-08-04T13:42:38.505Z,9.70
2022-08-04T13:45:10.772Z,9.60
2022-08-04T13:47:42.030Z,9.40
2022-08-04T13:50:17.953Z,9.50
2022-08-04T13:52:48.874Z,10.00
2022-08-04T13:55:23.235Z,10.30
2022-08-04T13:57:58.263Z,10.40
2022-08-04T14:00:37.182Z,10.30
2022-08-04T14:03:23.211Z,10.10
2022-08-04T14:06:19.145Z,9.70
2022-08-04T14:08:54.433Z,9.40
2022-08-04T14:12:09.611Z,9.10
2022-08-04T14:14:25.437Z,9.00
2022-08-04T14:17:00.141Z,9.20
2022-08-04T14:19:36.378Z,9.10
2022-08-04T14:22:06.180Z,9.10
2022-08-04T14:24:34.384Z,9.40
2022-08-04T14:27:02.651Z,9.60
2022-08-04T14:29:41.813Z,9.90
2022-08-04T14:32:14.247Z,10.80
2022-08-04T14:34:45.814Z,11.10
2022-08-04T14:37:22.480Z,11.00
2022-08-04T14:40:18.137Z,10.60
2022-08-04T14:42:54.972Z,10.40
2022-08-04T14:45:33.105Z,9.70
2022-08-04T14:48:02.710Z,10.40
2022-08-04T14:50:40.372Z,10.80
2022-08-04T14:53:13.517Z,10.70
2022-08-04T14:55:46.714Z,10.80
2022-08-04T14:58:35.158Z,10.50
2022-08-04T15:01:10.102Z,10.60
2022-08-04T15:03:50.402Z,10.80
2022-08-04T15:06:23.910Z,10.20
2022-08-04T15:08:56.821Z,10.70
2022-08-04T15:11:25.849Z,10.80
2022-08-04T15:13:54.484Z,10.70
2022-08-04T15:16:26.829Z,11.10
2022-08-04T15:18:56.874Z,11.70
2022-08-04T15:21:28.827Z,12.30
2022-08-04T15:23:59.271Z,12.90
2022-08-04T15:26:36.715Z,12.70
2022-08-04T15:29:18.479Z,12.50
2022-08-04T15:32:07.468Z,12.80
2022-08-04T15:35:03.313Z,12.80
2022-08-04T15:37:55.857Z,13.00
2022-08-04T15:40:33.503Z,12.70
2022-08-04T15:43:28.719Z,12.90
2022-08-04T15:46:02.212Z,13.80
2022-08-04T15:48:48.974Z,13.90
2022-08-04T15:51:30.409Z,13.60
2022-08-04T15:54:27.999Z,14.00
2022-08-04T15:57:03.750Z,15.10
2022-08-04T16:00:00.069Z,15.30
2022-08-04T16:02:46.969Z,16.10
2022-08-04T16:05:38.584Z,17.10
2022-08-04T16:08:17.060Z,16.90
2022-08-04T16:10:51.318Z,16.90
2022-08-04T16:13:23.460Z,17.00
2022-08-04T16:15:54.893Z,16.90
2022-08-04T16:18:44.019Z,16.60
2022-08-04T16:21:24.409Z,16.80
2022-08-04T16:24:07.950Z,16.50
2022-08-04T16:26:54.332Z,17.00
2022-08-04T16:29:38.910Z,17.70
2022-08-04T16:32:23.537Z,17.80
2022-08-04T16:35:00.041Z,17.50
2022-08-04T16:37:34.961Z,17.00
2022-08-04T16:40:37.567Z,17.00
2022-08-04T16:43:09.845Z,16.90
2022-08-04T16:45:46.504Z,17.30
2022-08-04T16:48:15.753Z,17.20
2022-08-04T16:50:51.478Z,17.50
2022-08-04T16:53:53.802Z,17.20
2022-08-04T16:56:12.001Z,17.20
2022-08-04T16:58:50.052Z,17.30
2022-08-04T17:01:33.750Z,17.50
2022-08-04T17:04:06.498Z,17.40
2022-08-04T17:06:41.355Z,17.60
2022-08-04T17:09:13.836Z,18.20
2022-08-04T17:11:44.325Z,18.70
2022-08-04T17:14:13.943Z,19.30
2022-08-04T17:16:44.473Z,19.50
2022-08-04T17:19:20.048Z,20.00
2022-08-04T17:22:02.998Z,20.10
2022-08-04T17:24:34.571Z,20.40
2022-08-04T17:27:04.336Z,20.90
2022-08-04T17:29:51.803Z,21.30
2022-08-04T17:32:23.553Z,21.70
2022-08-04T17:34:57.516Z,21.60
2022-08-04T17:37:38.181Z,21.70
2022-08-04T17:40:13.421Z,22.10
2022-08-04T17:48:24.831Z,21.20
2022-08-04T17:50:53.431Z,20.70
2022-08-04T17:54:02.302Z,20.60
2022-08-04T17:56:31.888Z,20.60
2022-08-04T17:59:57.030Z,20.60
2022-08-04T18:02:08.859Z,20.60
2022-08-04T18:05:05.558Z,20.50
2022-08-04T18:08:39.842Z,20.30
2022-08-04T18:10:43.234Z,20.60
2022-08-04T18:13:23.197Z,21.10
2022-08-04T18:15:51.447Z,21.50
2022-08-04T18:18:27.137Z,22.00
2022-08-04T18:20:59.750Z,22.70
2022-08-04T18:23:32.568Z,23.30
2022-08-04T18:26:02.215Z,23.70
2022-08-04T18:31:19.165Z,24.10
2022-08-04T18:33:57.369Z,24.60
2022-08-04T18:36:37.248Z,25.00
2022-08-04T18:39:13.672Z,25.30
2022-08-04T18:42:01.028Z,25.80
2022-08-04T18:44:30.916Z,26.10
2022-08-04T18:47:19.369Z,26.50
2022-08-04T18:51:11.322Z,26.80
2022-08-04T18:52:45.336Z,27.40
2022-08-04T18:55:55.476Z,28.00
2022-08-04T18:58:07.190Z,28.80
2022-08-04T19:00:36.037Z,29.80
2022-08-04T19:03:05.401Z,30.40
2022-08-04T19:05:38.238Z,31.20
2022-08-04T19:08:34.667Z,32.20
2022-08-04T19:11:00.268Z,32.80
2022-08-04T19:13:34.935Z,34.00
2022-08-04T19:16:04.526Z,35.00
2022-08-04T19:18:44.793Z,35.60
2022-08-04T19:21:13.617Z,37.20
2022-08-04T19:24:29.357Z,37.90
2022-08-04T19:26:31.352Z,40.00
2022-08-04T19:29:00.384Z,41.70
2022-08-04T19:31:34.512Z,43.80
2022-08-04T19:34:10.510Z,45.10
2022-08-04T19:36:39.373Z,46.90
2022-08-04T19:39:15.760Z,50.60
2022-08-04T19:42:04.298Z,52.70
2022-08-04T19:44:34.700Z,53.00
2022-08-04T19:48:12.186Z,55.40
2022-08-04T19:50:04.908Z,61.50
2022-08-04T19:52:49.191Z,64.40
2022-08-04T19:55:37.426Z,67.50
2022-08-04T19:58:13.299Z,70.40
2022-08-04T20:00:44.797Z,72.30
2022-08-04T20:03:22.423Z,73.30
2022-08-04T20:06:10.485Z,75.60
2022-08-04T20:08:38.725Z,79.10
2022-08-04T20:11:20.556Z,79.70
2022-08-04T20:13:54.804Z,82.10
2022-08-04T20:16:28.739Z,86.10
2022-08-04T20:19:04.125Z,87.40
2022-08-04T20:21:53.902Z,88.70
2022-08-04T20:24:37.792Z,93.30
2022-08-04T20:27:15.171Z,96.20
2022-08-04T20:29:49.469Z,98.60
2022-08-04T20:32:22.144Z,99.30
2022-08-04T20:34:52.217Z,99.90
2022-08-04T20:37:23.006Z,99.90
2022-08-04T20:39:55.602Z,99.90
2022-08-04T20:45:16.698Z,99.00
2022-08-04T20:47:53.206Z,96.20
2022-08-04T20:50:29.774Z,95.50
2022-08-04T20:52:59.088Z,95.50
2022-08-04T20:55:30.784Z,97.20
2022-08-04T20:58:03.156Z,98.10
2022-08-04T21:00:40.234Z,99.90
2022-08-04T21:03:08.433Z,99.90
2022-08-04T21:05:36.822Z,99.90
2022-08-04T21:08:07.996Z,98.30
2022-08-04T21:10:39.584Z,94.50
2022-08-04T21:13:18.852Z,91.90
2022-08-04T21:15:58.283Z,89.60
2022-08-04T21:18:29.326Z,87.90
2022-08-04T21:20:58.145Z,85.30
2022-08-04T21:23:26.353Z,82.40
2022-08-04T21:25:57.939Z,79.90
2022-08-04T21:28:28.135Z,78.40
2022-08-04T21:30:57.238Z,79.20
2022-08-04T21:33:48.976Z,77.30
2022-08-04T21:36:19.833Z,82.80
2022-08-04T21:38:51.585Z,99.90
2022-08-04T21:41:25.074Z,99.90
2022-08-04T21:43:58.831Z,99.90
2022-08-04T21:46:30.108Z,99.90
2022-08-04T21:48:58.864Z,99.90
2022-08-04T21:51:59.716Z,99.90
2022-08-04T21:54:18.233Z,99.90
2022-08-04T21:56:51.552Z,99.90
2022-08-04T21:59:24.319Z,99.90
2022-08-04T22:02:01.235Z,99.90
2022-08-04T22:04:31.039Z,99.90
2022-08-04T22:07:02.982Z,99.90
2022-08-04T22:09:38.557Z,99.90
2022-08-04T22:12:12.092Z,99.90
2022-08-04T22:14:57.618Z,99.90
2022-08-04T22:17:35.639Z,99.90
2022-08-04T22:20:05.467Z,99.90
2022-08-04T22:22:35.646Z,99.90
2022-08-04T22:28:01.582Z,99.90
2022-08-04T22:30:36.898Z,99.90
2022-08-04T22:33:08.910Z,99.90
2022-08-04T22:35:48.640Z,99.90
2022-08-04T22:38:27.942Z,99.90
2022-08-04T22:41:08.156Z,99.90
2022-08-04T22:43:37.707Z,99.90
2022-08-04T22:46:12.104Z,99.90
2022-08-04T22:48:43.375Z,99.90
2022-08-04T22:51:13.166Z,99.90
2022-08-04T22:53:42.024Z,99.90
2022-08-04T22:56:37.414Z,99.90
2022-08-04T22:59:06.263Z,99.90
2022-08-04T23:01:57.964Z,99.90
2022-08-04T23:04:26.700Z,99.90
2022-08-04T23:06:55.258Z,99.90
2022-08-04T23:09:26.955Z,99.90
2022-08-04T23:12:24.309Z,99.90
2022-08-04T23:14:54.974Z,99.90
2022-08-04T23:17:27.572Z,99.90
2022-08-04T23:19:58.823Z,99.90
2022-08-04T23:22:36.898Z,99.90
2022-08-04T23:25:15.209Z,99.90
2022-08-04T23:27:51.234Z,99.90
2022-08-04T23:30:24.377Z,99.90
2022-08-04T23:32:57.849Z,99.90
2022-08-04T23:35:26.124Z,99.90
2022-08-04T23:37:56.658Z,99.90
2022-08-04T23:40:33.051Z,99.90
2022-08-04T23:43:16.915Z,99.90
2022-08-04T23:46:07.663Z,99.90
2022-08-04T23:48:39.171Z,99.90
2022-08-04T23:51:14.854Z,99.90
2022-08-04T23:54:01.864Z,99.90
2022-08-04T23:56:32.146Z,99.90
2022-08-04T23:59:03.801Z,99.90
